Terminal Aerodrome Forecast
Issued by NWS Binghamton, NY

Home | Current Version | Previous Version | Text Only | Print | Product List | Glossary On
Versions: 1 2 3 4 5 6 7 8 9 10 11 12 13 14 15 16 17 18 19 20
527
FTUS41 KBGM 252357 AAD
TAFAVP
TAF AMD
KAVP 252357Z 2600/2624 VRB03KT P6SM SCT004
      TEMPO 2600/2604 4SM BR BKN004
     FM260400 24002KT 4SM BR SCT003
      TEMPO 2607/2611 2SM BR
     FM261300 30007KT P6SM FEW200=

USA.gov is the U.S. government's official web portal to all federal, state and local government web resources and services.